Time;durP1;ratioP1;P1;durP2;ratioP2;P2;SDS_P1;SDS_P2;PMS_P1;PMS_P2;Temp;Humidity;BMP_temperature;BMP_pressure;BME280_temperature;BME280_humidity;BME280_pressure;Samples;Min_cycle;Max_cycle;Signal;HPM_P1;HPM_P2
2022/07/23 00:00:44;;;;;;;7.38;3.88;;;;;;;22.34;41.37;94211.47;5123924;28;20340;-76
2022/07/23 00:03:09;;;;;;;11.68;3.92;;;;;;;22.27;41.02;94216.06;5123856;28;20023;-75
2022/07/23 00:05:35;;;;;;;7.38;3.65;;;;;;;22.24;39.48;94214.91;5123754;28;20206;-75
2022/07/23 00:08:01;;;;;;;19.35;4.93;;;;;;;22.24;40.26;94217.63;5123753;28;20051;-75
2022/07/23 00:10:26;;;;;;;8.00;3.70;;;;;;;22.24;40.83;94221.09;5123887;28;20099;-75
2022/07/23 00:12:52;;;;;;;10.98;3.97;;;;;;;22.20;40.98;94216.78;5123839;28;20012;-75
2022/07/23 00:15:18;;;;;;;13.88;4.20;;;;;;;22.20;40.62;94222.22;5123496;28;20068;-75
2022/07/23 00:17:43;;;;;;;10.00;4.47;;;;;;;22.18;40.22;94221.81;5123315;28;20065;-75
2022/07/23 00:20:09;;;;;;;7.13;4.00;;;;;;;22.17;40.25;94233.84;5123580;28;20344;-75
2022/07/23 00:22:35;;;;;;;12.25;3.97;;;;;;;22.19;40.25;94228.81;5123318;27;20044;-75
2022/07/23 00:25:00;;;;;;;10.73;4.35;;;;;;;22.14;41.45;94227.22;5123669;28;20336;-75
2022/07/23 00:27:26;;;;;;;13.93;4.10;;;;;;;22.10;40.28;94231.84;5123573;28;20047;-75
2022/07/23 00:29:51;;;;;;;8.27;4.07;;;;;;;22.06;40.36;94241.91;5123317;28;20268;-75
2022/07/23 00:32:17;;;;;;;11.48;4.80;;;;;;;22.00;41.11;94243.41;5123322;28;20057;-75
2022/07/23 00:34:42;;;;;;;9.70;4.43;;;;;;;21.89;41.10;94243.31;5123316;28;20023;-75
2022/07/23 00:37:07;;;;;;;12.63;4.53;;;;;;;21.82;41.52;94241.34;5123317;28;20030;-75
2022/07/23 00:39:33;;;;;;;12.68;4.18;;;;;;;21.79;41.48;94244.78;5123161;28;20019;-75
2022/07/23 00:41:59;;;;;;;8.45;4.55;;;;;;;21.75;42.06;94230.41;5123249;28;20034;-75
2022/07/23 00:44:26;;;;;;;12.70;4.45;;;;;;;21.78;42.65;94228.91;5123312;28;20195;-75
2022/07/23 00:47:01;;;;;;;11.15;5.95;;;;;;;21.75;43.32;94232.34;5123175;28;20230;-75
2022/07/23 00:49:28;;;;;;;12.85;4.28;;;;;;;21.70;43.99;94228.06;5123008;28;20023;-75
2022/07/23 00:51:55;;;;;;;8.23;4.68;;;;;;;21.67;43.75;94228.81;5122590;28;20213;-75
2022/07/23 00:54:23;;;;;;;8.40;4.18;;;;;;;21.59;43.56;94232.59;5123000;28;20088;-75
2022/07/23 00:56:49;;;;;;;8.70;4.57;;;;;;;21.50;43.83;94232.94;5122935;28;20197;-75
2022/07/23 00:59:14;;;;;;;7.80;3.83;;;;;;;21.48;44.19;94226.31;5123056;28;20326;-75
2022/07/23 01:01:40;;;;;;;12.10;3.78;;;;;;;21.43;44.39;94227.41;5122958;28;20030;-75
2022/07/23 01:04:06;;;;;;;15.98;5.07;;;;;;;21.40;43.94;94228.16;5122689;28;20302;-75
2022/07/23 01:06:36;;;;;;;11.00;4.95;;;;;;;21.34;44.22;94225.00;5123244;28;20065;-75
2022/07/23 01:09:04;;;;;;;12.90;4.68;;;;;;;21.35;44.66;94233.91;5123217;28;20047;-75
2022/07/23 01:11:35;;;;;;;8.77;4.38;;;;;;;21.32;45.08;94224.59;5123039;28;20023;-75
2022/07/23 01:14:08;;;;;;;8.05;4.55;;;;;;;21.28;45.21;94228.41;5122833;28;20019;-75
2022/07/23 01:16:33;;;;;;;11.25;4.35;;;;;;;21.22;45.45;94219.84;5122758;28;20040;-75
2022/07/23 01:18:59;;;;;;;17.02;4.40;;;;;;;21.15;46.53;94220.56;5122854;28;20051;-75
2022/07/23 01:21:25;;;;;;;10.82;4.85;;;;;;;21.09;45.85;94222.03;5122935;28;20020;-75
2022/07/23 01:23:50;;;;;;;9.55;4.13;;;;;;;21.01;46.21;94215.75;5122933;28;20027;-75
2022/07/23 01:26:16;;;;;;;7.53;3.83;;;;;;;20.96;46.48;94220.72;5122698;28;20076;-75
2022/07/23 01:28:42;;;;;;;10.82;4.07;;;;;;;20.91;46.59;94221.84;5122821;28;20027;-75
2022/07/23 01:31:08;;;;;;;9.27;4.40;;;;;;;20.89;44.33;94213.28;5122468;28;20255;-75
2022/07/23 01:33:33;;;;;;;7.90;4.30;;;;;;;20.82;45.98;94216.72;5122927;28;20031;-75
2022/07/23 01:35:59;;;;;;;18.70;5.38;;;;;;;20.81;44.55;94222.50;5122838;28;20020;-75
2022/07/23 01:38:24;;;;;;;9.18;4.28;;;;;;;20.77;44.88;94217.03;5122831;28;20085;-75
2022/07/23 01:40:50;;;;;;;8.70;5.43;;;;;;;20.69;45.43;94206.47;5122664;28;20020;-75
2022/07/23 01:43:15;;;;;;;7.40;4.47;;;;;;;20.64;45.31;94218.44;5122369;28;20061;-75
2022/07/23 01:45:41;;;;;;;12.73;5.45;;;;;;;20.58;45.41;94214.47;5122560;28;20054;-75
2022/07/23 01:48:07;;;;;;;12.73;5.03;;;;;;;20.56;45.46;94217.53;5122561;28;20332;-75
2022/07/23 01:50:32;;;;;;;10.50;5.38;;;;;;;20.56;45.42;94212.09;5122672;28;20051;-75
2022/07/23 01:52:58;;;;;;;8.43;4.85;;;;;;;20.56;44.93;94220.22;5122631;28;20090;-75
2022/07/23 01:55:23;;;;;;;9.80;5.35;;;;;;;20.53;44.78;94212.06;5122433;28;20400;-75
2022/07/23 01:57:49;;;;;;;12.50;4.85;;;;;;;20.55;44.58;94217.88;5122555;28;20108;-75
2022/07/23 02:00:14;;;;;;;10.25;4.65;;;;;;;20.57;43.86;94219.06;5122383;28;20024;-75
2022/07/23 02:02:40;;;;;;;9.07;4.57;;;;;;;20.58;43.51;94206.34;5124867;28;20059;-75
2022/07/23 02:05:05;;;;;;;10.80;5.35;;;;;;;20.55;43.82;94210.53;5126095;28;20042;-75
2022/07/23 02:07:31;;;;;;;10.80;5.03;;;;;;;20.59;44.16;94208.69;5126254;28;20020;-75
2022/07/23 02:09:57;;;;;;;18.65;4.72;;;;;;;20.61;43.75;94208.31;5126000;28;20247;-75
2022/07/23 02:12:22;;;;;;;8.32;4.75;;;;;;;20.60;43.93;94210.25;5126012;28;20016;-75
2022/07/23 02:14:47;;;;;;;12.38;4.53;;;;;;;20.62;43.68;94212.59;5125938;28;20095;-75
2022/07/23 02:17:13;;;;;;;14.52;4.20;;;;;;;20.63;44.28;94214.91;5125686;28;20221;-75
2022/07/23 02:19:38;;;;;;;10.85;4.03;;;;;;;20.63;45.17;94225.75;5125752;28;20023;-75
2022/07/23 02:22:04;;;;;;;10.45;4.80;;;;;;;20.66;45.81;94218.84;5125715;28;20051;-75
2022/07/23 02:24:29;;;;;;;9.45;4.65;;;;;;;20.67;46.49;94214.19;5125825;28;20020;-75
2022/07/23 02:26:55;;;;;;;11.98;5.72;;;;;;;20.64;46.55;94213.00;5125820;28;20267;-75
2022/07/23 02:29:20;;;;;;;17.90;5.55;;;;;;;20.63;46.75;94223.03;5125900;28;20023;-75
2022/07/23 02:31:46;;;;;;;10.43;5.30;;;;;;;20.61;46.79;94228.03;5125677;28;20042;-74
2022/07/23 02:34:11;;;;;;;11.35;4.68;;;;;;;20.60;47.19;94226.50;5125454;28;20199;-75
2022/07/23 02:36:38;;;;;;;9.23;4.80;;;;;;;20.55;47.01;94215.16;5125761;28;20223;-75
2022/07/23 02:39:04;;;;;;;9.35;4.47;;;;;;;20.48;47.21;94220.50;5125633;28;20094;-75
2022/07/23 02:41:29;;;;;;;12.25;4.57;;;;;;;20.41;47.18;94216.56;5125248;28;20046;-75
2022/07/23 02:43:54;;;;;;;11.45;4.28;;;;;;;20.34;47.24;94234.63;5125389;28;20187;-75
2022/07/23 02:46:20;;;;;;;12.98;5.03;;;;;;;20.31;46.92;94232.63;5125427;28;20045;-75
2022/07/23 02:48:45;;;;;;;13.93;4.22;;;;;;;20.25;47.53;94218.63;5125364;28;20016;-75
2022/07/23 02:51:11;;;;;;;9.73;4.53;;;;;;;20.21;46.98;94228.63;5124490;28;20018;-75
2022/07/23 02:53:36;;;;;;;15.32;5.70;;;;;;;20.16;46.87;94226.25;5124943;28;20019;-74
2022/07/23 02:56:02;;;;;;;17.02;4.40;;;;;;;20.12;47.05;94231.59;5125265;28;20310;-75
2022/07/23 02:58:28;;;;;;;11.30;4.22;;;;;;;20.09;47.66;94237.75;5124877;28;20031;-75
2022/07/23 03:00:53;;;;;;;12.60;4.57;;;;;;;20.09;47.72;94232.34;5125123;28;20082;-75
2022/07/23 03:03:19;;;;;;;13.13;4.82;;;;;;;20.05;47.80;94236.94;5125032;28;20023;-74
2022/07/23 03:05:44;;;;;;;14.63;4.78;;;;;;;20.02;48.02;94243.84;5125000;28;20019;-76
2022/07/23 03:08:10;;;;;;;9.73;4.50;;;;;;;20.00;48.39;94256.16;5124779;28;20020;-76
2022/07/23 03:10:35;;;;;;;9.43;4.47;;;;;;;19.99;48.61;94249.97;5125019;27;20016;-76
2022/07/23 03:13:01;;;;;;;9.30;5.25;;;;;;;19.95;48.87;94248.38;5124243;28;20205;-76
2022/07/23 03:15:26;;;;;;;7.55;4.43;;;;;;;19.95;48.57;94254.56;5124412;28;20024;-76
2022/07/23 03:17:52;;;;;;;14.30;5.28;;;;;;;19.93;48.81;94254.13;5124723;28;20133;-76
2022/07/23 03:20:17;;;;;;;10.80;4.68;;;;;;;19.90;49.57;94251.38;5124665;28;20023;-76
2022/07/23 03:22:42;;;;;;;15.90;7.55;;;;;;;19.88;49.59;94259.06;5124539;28;20065;-76
2022/07/23 03:25:08;;;;;;;11.25;5.30;;;;;;;19.81;49.87;94257.81;5124516;28;20019;-76
2022/07/23 03:27:34;;;;;;;12.02;5.18;;;;;;;19.83;50.41;94252.03;5124559;28;20030;-76
2022/07/23 03:30:00;;;;;;;17.73;6.15;;;;;;;19.81;50.25;94257.81;5124525;28;20091;-76
2022/07/23 03:32:26;;;;;;;10.63;4.30;;;;;;;19.81;48.62;94257.81;5124255;28;20054;-76
2022/07/23 03:34:52;;;;;;;13.70;5.20;;;;;;;19.75;48.58;94256.56;5124571;28;20043;-76
2022/07/23 03:37:18;;;;;;;14.50;4.78;;;;;;;19.77;49.29;94256.19;5124432;28;20019;-76
2022/07/23 03:39:44;;;;;;;11.52;4.90;;;;;;;19.79;48.55;94262.81;5124253;28;20090;-76
2022/07/23 03:42:10;;;;;;;11.10;4.93;;;;;;;19.81;48.05;94257.81;5124273;28;20036;-76
2022/07/23 03:44:38;;;;;;;9.35;5.35;;;;;;;19.84;48.27;94264.41;5124356;28;20078;-76
2022/07/23 03:47:05;;;;;;;11.75;5.75;;;;;;;19.86;49.05;94272.16;5124241;28;20020;-76
2022/07/23 03:49:31;;;;;;;12.77;5.55;;;;;;;19.80;50.01;94269.78;5124288;28;20030;-76
2022/07/23 03:51:57;;;;;;;12.95;5.47;;;;;;;19.77;50.38;94264.31;5124245;28;20357;-76
2022/07/23 03:54:22;;;;;;;10.07;5.65;;;;;;;19.77;50.20;94275.13;5123891;28;20019;-76
2022/07/23 03:56:48;;;;;;;11.85;5.22;;;;;;;19.74;50.64;94271.22;5123891;28;20026;-76
2022/07/23 03:59:13;;;;;;;18.27;5.68;;;;;;;19.78;50.70;94268.56;5124091;28;20065;-77
2022/07/23 04:01:39;;;;;;;12.20;5.72;;;;;;;19.79;50.79;94268.22;5123836;28;20035;-76
2022/07/23 04:04:04;;;;;;;13.63;6.03;;;;;;;19.81;50.91;94274.03;5124000;28;20023;-76
2022/07/23 04:06:30;;;;;;;10.90;5.68;;;;;;;19.86;51.12;94264.84;5123681;28;20314;-76
2022/07/23 04:08:55;;;;;;;12.27;5.93;;;;;;;19.89;51.04;94269.53;5123824;28;20046;-76
2022/07/23 04:11:21;;;;;;;15.63;5.68;;;;;;;19.92;51.17;94268.03;5123801;28;20015;-76
2022/07/23 04:13:46;;;;;;;11.35;6.35;;;;;;;19.97;51.21;94268.50;5123689;28;20023;-76
2022/07/23 04:16:12;;;;;;;13.00;5.55;;;;;;;20.04;51.38;94267.81;5123621;28;20055;-76
2022/07/23 04:18:38;;;;;;;18.48;5.93;;;;;;;20.14;51.65;94272.63;5123719;28;20091;-76
2022/07/23 04:21:03;;;;;;;10.70;5.70;;;;;;;20.16;51.35;94274.97;5122372;28;20051;-76
2022/07/23 04:23:29;;;;;;;18.05;7.55;;;;;;;20.18;51.87;94275.38;5123506;28;20019;-76
2022/07/23 04:25:54;;;;;;;13.00;6.43;;;;;;;20.24;51.42;94276.63;5123323;28;20051;-76
2022/07/23 04:28:19;;;;;;;12.88;5.45;;;;;;;20.23;52.38;94273.16;5123426;28;20020;-76
2022/07/23 04:30:45;;;;;;;16.90;6.97;;;;;;;20.22;52.31;94290.53;5123389;28;20019;-76
2022/07/23 04:33:10;;;;;;;12.18;6.45;;;;;;;20.24;51.99;94293.66;5123000;28;20209;-76
2022/07/23 04:35:36;;;;;;;14.63;7.43;;;;;;;20.26;52.04;94289.81;5123578;28;20076;-76
2022/07/23 04:38:03;;;;;;;14.75;7.15;;;;;;;20.22;53.03;94284.34;5123350;28;20023;-76
2022/07/23 04:40:29;;;;;;;20.52;6.93;;;;;;;20.24;52.54;94277.41;5123305;28;20024;-76
2022/07/23 04:42:54;;;;;;;12.25;6.50;;;;;;;20.31;53.28;94284.06;5123374;28;20091;-76
2022/07/23 04:45:20;;;;;;;18.63;7.20;;;;;;;20.40;53.07;94276.47;5123024;28;20023;-76
2022/07/23 04:47:45;;;;;;;15.13;7.53;;;;;;;20.52;53.07;94278.19;5123038;28;20020;-76
2022/07/23 04:50:11;;;;;;;17.85;7.22;;;;;;;20.58;52.36;94284.84;5123265;28;20026;-76
2022/07/23 04:52:37;;;;;;;15.90;6.53;;;;;;;20.64;51.69;94292.31;5123324;28;20248;-76
2022/07/23 04:55:03;;;;;;;14.52;7.07;;;;;;;20.73;52.64;94286.63;5123057;28;20174;-76
2022/07/23 04:57:28;;;;;;;16.10;6.93;;;;;;;20.79;51.39;94295.22;5123093;28;20445;-76
2022/07/23 04:59:53;;;;;;;16.67;6.18;;;;;;;20.87;51.35;94294.16;5123231;28;20289;-76
2022/07/23 05:02:19;;;;;;;21.48;6.60;;;;;;;20.84;50.38;94286.75;5123106;28;20035;-76
2022/07/23 05:04:44;;;;;;;13.60;6.40;;;;;;;20.89;50.26;94294.56;5122899;28;20043;-76
2022/07/23 05:07:10;;;;;;;20.48;7.28;;;;;;;20.98;50.26;94300.47;5123142;28;20023;-76
2022/07/23 05:09:36;;;;;;;13.13;6.38;;;;;;;21.04;50.06;94301.75;5123142;28;20086;-76
2022/07/23 05:12:01;;;;;;;18.42;6.40;;;;;;;21.10;50.06;94291.34;5122891;28;20020;-76
2022/07/23 05:14:27;;;;;;;20.88;6.75;;;;;;;21.22;49.90;94287.59;5123057;28;20019;-76
2022/07/23 05:16:53;;;;;;;14.82;6.20;;;;;;;21.29;50.42;94295.81;5122531;28;20372;-76
2022/07/23 05:19:19;;;;;;;22.30;7.45;;;;;;;21.39;49.29;94300.59;5122893;28;20019;-76
2022/07/23 05:21:44;;;;;;;22.30;6.88;;;;;;;21.47;49.53;94303.38;5122827;28;20028;-76
2022/07/23 05:24:09;;;;;;;14.40;6.35;;;;;;;21.52;49.75;94300.34;5122803;28;20041;-76
2022/07/23 05:26:35;;;;;;;21.40;6.43;;;;;;;21.58;50.29;94299.63;5123108;28;20015;-76
2022/07/23 05:29:01;;;;;;;19.95;7.00;;;;;;;21.66;49.31;94300.50;5122704;28;20340;-76
2022/07/23 05:31:26;;;;;;;14.00;5.90;;;;;;;21.69;49.32;94304.38;5123048;28;20031;-76
2022/07/23 05:33:51;;;;;;;21.63;6.82;;;;;;;21.74;49.40;94302.13;5122783;28;20370;-76
2022/07/23 05:36:17;;;;;;;15.45;6.78;;;;;;;21.81;48.93;94306.81;5122839;28;20023;-76
2022/07/23 05:38:42;;;;;;;21.10;6.75;;;;;;;21.92;49.25;94298.78;5126736;28;20019;-76
2022/07/23 05:41:08;;;;;;;17.55;6.53;;;;;;;22.02;47.97;94298.09;5126691;28;20026;-76
2022/07/23 05:43:33;;;;;;;15.00;6.10;;;;;;;22.14;47.08;94300.50;5126614;27;20069;-76
2022/07/23 05:45:59;;;;;;;15.93;5.70;;;;;;;22.28;47.99;94299.09;5126371;28;20019;-76
2022/07/23 05:48:24;;;;;;;20.27;6.28;;;;;;;22.41;47.16;94303.09;5126571;28;20038;-76
2022/07/23 05:50:50;;;;;;;27.70;7.13;;;;;;;22.57;45.42;94305.50;5126248;27;20026;-76
2022/07/23 05:53:15;;;;;;;10.27;5.18;;;;;;;22.61;44.58;94306.28;5126105;28;20325;-76
2022/07/23 05:55:40;;;;;;;14.13;6.35;;;;;;;22.67;47.43;94307.50;5126317;28;20031;-76
2022/07/23 05:58:06;;;;;;;18.73;6.45;;;;;;;22.74;45.57;94306.78;5126402;28;20358;-76
2022/07/23 06:00:31;;;;;;;18.23;5.30;;;;;;;22.82;44.11;94305.66;5126267;27;20107;-76
2022/07/23 06:02:57;;;;;;;10.48;5.25;;;;;;;22.92;44.12;94299.50;5126027;28;20066;-76
2022/07/23 06:05:23;;;;;;;15.80;5.45;;;;;;;22.99;44.19;94296.78;5126023;28;20019;-76
2022/07/23 06:07:49;;;;;;;22.13;6.32;;;;;;;23.06;44.13;94303.47;5125877;28;20297;-76
2022/07/23 06:10:14;;;;;;;18.95;5.80;;;;;;;23.13;43.76;94300.78;5125852;28;20020;-76
2022/07/23 06:12:41;;;;;;;15.45;6.00;;;;;;;23.18;43.80;94297.69;5125840;28;20042;-76
2022/07/23 06:15:07;;;;;;;16.25;6.40;;;;;;;23.28;44.19;94294.22;5126014;28;20019;-76
2022/07/23 06:17:32;;;;;;;16.50;6.75;;;;;;;23.38;44.06;94290.75;5125838;28;20044;-76
2022/07/23 06:19:58;;;;;;;17.45;6.05;;;;;;;23.41;43.82;94300.09;5125686;27;20035;-76
2022/07/23 06:22:24;;;;;;;19.67;6.22;;;;;;;23.52;43.06;94291.97;5125854;28;20016;-76
2022/07/23 06:24:51;;;;;;;11.93;5.22;;;;;;;23.63;43.27;94290.06;5125881;28;20082;-77
2022/07/23 06:27:17;;;;;;;20.33;5.80;;;;;;;23.73;43.34;94286.56;5125872;27;20019;-76
2022/07/23 06:29:42;;;;;;;20.65;6.30;;;;;;;23.80;42.79;94286.59;5125736;28;20258;-76
2022/07/23 06:32:08;;;;;;;16.40;5.97;;;;;;;23.86;42.63;94291.69;5125768;28;20318;-76
2022/07/23 06:34:34;;;;;;;13.77;5.05;;;;;;;23.99;42.13;94298.28;5125709;28;20015;-76
2022/07/23 06:37:00;;;;;;;12.13;5.72;;;;;;;24.04;41.47;94295.19;5125504;28;20133;-76
2022/07/23 06:39:25;;;;;;;22.23;6.32;;;;;;;24.13;43.02;94297.50;5125511;28;20034;-76
2022/07/23 06:41:51;;;;;;;12.05;5.65;;;;;;;24.16;42.38;94297.53;5125289;28;20027;-77
2022/07/23 06:44:17;;;;;;;18.60;6.10;;;;;;;24.29;42.01;94295.16;5125284;28;20079;-76
2022/07/23 06:46:42;;;;;;;15.02;4.90;;;;;;;24.40;40.50;94295.16;5125481;28;20022;-75
2022/07/23 06:49:08;;;;;;;13.27;5.65;;;;;;;24.44;41.38;94293.19;5125548;28;20031;-75
2022/07/23 06:51:34;;;;;;;16.02;6.00;;;;;;;24.54;40.49;94283.50;5125180;28;20042;-75
2022/07/23 06:54:00;;;;;;;15.80;5.40;;;;;;;24.52;41.06;94286.59;5125325;28;20041;-75
2022/07/23 06:56:25;;;;;;;16.02;5.70;;;;;;;24.63;40.63;94290.09;5125157;27;20026;-75
2022/07/23 06:58:51;;;;;;;20.55;6.57;;;;;;;24.72;40.41;94284.22;5125085;28;20020;-75
2022/07/23 07:01:17;;;;;;;15.50;5.55;;;;;;;24.81;39.68;94290.06;5124598;28;20020;-75
2022/07/23 07:03:42;;;;;;;21.35;6.07;;;;;;;24.86;38.86;94288.09;5125056;28;20209;-75
2022/07/23 07:06:08;;;;;;;16.95;5.57;;;;;;;24.98;41.16;94290.41;5125327;28;20080;-76
2022/07/23 07:08:33;;;;;;;17.88;6.80;;;;;;;25.00;40.38;94290.78;5124747;28;20023;-75
2022/07/23 07:10:59;;;;;;;14.13;5.95;;;;;;;25.05;38.56;94289.59;5125019;28;20019;-75
2022/07/23 07:13:24;;;;;;;24.10;6.22;;;;;;;25.10;38.38;94291.94;5124919;28;20019;-77
2022/07/23 07:15:50;;;;;;;18.30;5.68;;;;;;;25.16;38.71;94290.34;5124768;28;20024;-76
2022/07/23 07:18:15;;;;;;;16.55;5.45;;;;;;;25.16;39.00;94285.66;5124667;28;20019;-76
2022/07/23 07:20:40;;;;;;;10.75;5.57;;;;;;;25.24;37.95;94283.72;5124719;28;20030;-76
2022/07/23 07:23:06;;;;;;;15.10;6.05;;;;;;;25.36;38.20;94282.47;5123392;28;20099;-76
2022/07/23 07:25:32;;;;;;;12.15;4.75;;;;;;;25.47;37.18;94276.97;5124691;28;20047;-76
2022/07/23 07:27:57;;;;;;;22.55;5.55;;;;;;;25.51;37.83;94275.78;5124671;28;20043;-76
2022/07/23 07:30:23;;;;;;;14.77;5.60;;;;;;;25.60;39.04;94273.38;5124859;28;20061;-76
2022/07/23 07:32:48;;;;;;;15.80;5.47;;;;;;;25.67;39.56;94272.56;5124544;28;20370;-76
2022/07/23 07:35:13;;;;;;;21.20;7.30;;;;;;;25.76;37.54;94272.88;5124375;28;20263;-76
2022/07/23 07:37:39;;;;;;;16.60;6.70;;;;;;;25.84;37.89;94265.41;5124797;28;20217;-76
2022/07/23 07:40:05;;;;;;;14.07;5.32;;;;;;;25.93;39.97;94267.72;5124588;28;20015;-76
2022/07/23 07:42:32;;;;;;;15.23;5.38;;;;;;;25.97;37.55;94269.25;5124269;28;20027;-76
2022/07/23 07:44:57;;;;;;;21.38;5.88;;;;;;;26.06;38.01;94266.06;5124439;28;20015;-76
2022/07/23 07:47:23;;;;;;;18.42;5.88;;;;;;;26.14;37.98;94266.78;5124371;28;20020;-76
2022/07/23 07:49:48;;;;;;;16.30;5.95;;;;;;;26.17;37.68;94269.47;5124105;28;20051;-76
2022/07/23 07:52:13;;;;;;;16.45;6.50;;;;;;;26.26;37.89;94277.22;5124089;28;20321;-76
2022/07/23 07:54:39;;;;;;;16.00;6.30;;;;;;;26.36;38.94;94275.59;5124306;28;20027;-76
2022/07/23 07:57:04;;;;;;;21.65;7.20;;;;;;;26.40;36.82;94266.16;5124148;28;20022;-76
2022/07/23 07:59:30;;;;;;;9.88;5.32;;;;;;;26.49;38.18;94262.19;5123459;27;20027;-76
2022/07/23 08:01:56;;;;;;;22.10;6.68;;;;;;;26.56;37.44;94268.38;5124053;28;20030;-76
2022/07/23 08:04:21;;;;;;;20.95;6.63;;;;;;;26.58;36.99;94259.78;5122856;28;20019;-77
2022/07/23 08:06:46;;;;;;;18.15;6.07;;;;;;;26.72;36.40;94265.09;5123952;28;20033;-77
2022/07/23 08:09:12;;;;;;;23.80;5.97;;;;;;;26.72;36.60;94265.09;5124166;28;20072;-77
2022/07/23 08:11:37;;;;;;;18.70;5.68;;;;;;;26.82;36.72;94260.69;5123899;28;20012;-76
2022/07/23 08:14:03;;;;;;;14.07;5.88;;;;;;;26.97;36.36;94259.34;5123903;28;20332;-76
2022/07/23 08:16:28;;;;;;;18.33;6.38;;;;;;;27.12;35.62;94264.66;5123390;28;20070;-76
2022/07/23 08:18:54;;;;;;;15.45;6.60;;;;;;;27.13;35.96;94256.03;5123655;28;20046;-76
2022/07/23 08:21:19;;;;;;;17.88;5.90;;;;;;;27.26;35.50;94259.03;5123530;28;20126;-76
2022/07/23 08:23:45;;;;;;;18.08;6.00;;;;;;;27.35;35.76;94259.28;5123451;28;20024;-76
2022/07/23 08:26:10;;;;;;;12.82;5.68;;;;;;;27.41;35.18;94262.34;5123637;28;20070;-76
2022/07/23 08:28:36;;;;;;;15.40;5.93;;;;;;;27.52;35.85;94262.19;5123552;28;20048;-76
2022/07/23 08:31:01;;;;;;;16.15;5.85;;;;;;;27.68;35.96;94259.66;5123499;28;20027;-76
2022/07/23 08:33:27;;;;;;;18.60;6.38;;;;;;;27.74;36.82;94252.53;5123469;28;20041;-77
2022/07/23 08:35:53;;;;;;;23.17;6.60;;;;;;;27.86;36.18;94255.84;5123536;28;20248;-76
2022/07/23 08:38:20;;;;;;;24.38;7.07;;;;;;;27.98;36.00;94258.03;5123228;28;20019;-76
2022/07/23 08:40:48;;;;;;;17.13;7.10;;;;;;;28.04;35.45;94261.84;5123047;27;20019;-76
2022/07/23 08:43:23;;;;;;;19.83;6.32;;;;;;;28.04;34.86;94250.91;5123437;28;20335;-76
2022/07/23 08:45:50;;;;;;;21.50;6.07;;;;;;;28.10;34.90;94257.47;5123308;28;20023;-76
2022/07/23 08:48:22;;;;;;;19.88;6.32;;;;;;;28.25;34.25;94255.28;5123026;28;20019;-76
2022/07/23 08:50:56;;;;;;;17.63;6.60;;;;;;;28.35;33.97;94248.03;5123217;28;20087;-76
2022/07/23 08:53:23;;;;;;;19.40;6.68;;;;;;;28.44;34.37;94251.03;5122960;28;20042;-76
2022/07/23 08:55:51;;;;;;;17.67;6.30;;;;;;;28.49;34.25;94242.31;5123239;28;20047;-76
2022/07/23 08:58:17;;;;;;;18.55;6.47;;;;;;;28.61;34.56;94249.94;5123180;28;20092;-76
2022/07/23 09:00:43;;;;;;;13.93;5.63;;;;;;;28.72;34.07;94241.53;5123104;28;20024;-76
2022/07/23 09:03:22;;;;;;;20.77;6.15;;;;;;;28.89;34.12;94242.38;5122989;28;20047;-76
2022/07/23 09:05:49;;;;;;;18.30;6.40;;;;;;;29.03;33.96;94246.06;5123232;28;20039;-76
2022/07/23 09:08:18;;;;;;;22.52;6.88;;;;;;;29.12;32.67;94244.31;5123408;28;20030;-76
2022/07/23 09:10:52;;;;;;;18.95;6.97;;;;;;;29.17;33.28;94243.06;5123196;28;20038;-76
2022/07/23 09:13:26;;;;;;;19.92;7.20;;;;;;;29.33;33.33;94242.31;5126545;28;20012;-76
2022/07/23 09:15:53;;;;;;;16.67;5.97;;;;;;;29.45;33.04;94241.66;5126932;28;20023;-76
2022/07/23 09:18:18;;;;;;;14.13;6.63;;;;;;;29.52;31.70;94238.00;5127190;28;20019;-76
2022/07/23 09:20:44;;;;;;;13.82;5.72;;;;;;;29.63;32.87;94244.00;5125966;28;20318;-76
2022/07/23 09:23:10;;;;;;;18.75;6.28;;;;;;;29.75;30.52;94239.84;5126955;28;20016;-76
2022/07/23 09:25:35;;;;;;;15.32;5.82;;;;;;;29.84;30.50;94244.75;5127154;28;20352;-76
2022/07/23 09:28:02;;;;;;;16.00;6.68;;;;;;;29.81;30.06;94240.88;5127006;27;20246;-76
2022/07/23 09:30:31;;;;;;;11.07;5.53;;;;;;;29.88;30.51;94239.94;5127169;28;20016;-77
2022/07/23 09:33:11;;;;;;;14.95;5.28;;;;;;;29.94;30.70;94238.22;5127183;28;20244;-76
2022/07/23 09:35:50;;;;;;;18.92;6.03;;;;;;;30.04;28.54;94233.69;5126998;28;20031;-76
2022/07/23 09:38:18;;;;;;;13.20;5.95;;;;;;;30.15;28.47;94232.22;5126946;28;20199;-76
2022/07/23 09:40:44;;;;;;;14.23;5.57;;;;;;;30.19;30.46;94229.41;5126999;28;20072;-76
2022/07/23 09:43:10;;;;;;;19.08;5.95;;;;;;;30.24;26.82;94223.38;5126609;28;20316;-76
2022/07/23 09:45:35;;;;;;;11.90;4.60;;;;;;;30.35;23.74;94220.41;5126594;28;20027;-76
2022/07/23 09:48:15;;;;;;;14.07;5.35;;;;;;;30.44;25.34;94223.28;5125442;28;20034;-76
2022/07/23 09:50:42;;;;;;;17.17;4.70;;;;;;;30.58;23.65;94219.41;5126357;28;20143;-76
2022/07/23 09:53:08;;;;;;;15.77;4.10;;;;;;;30.73;23.44;94222.53;5126421;28;20015;-76
2022/07/23 09:55:36;;;;;;;15.20;3.58;;;;;;;30.77;23.35;94215.72;5126417;28;20068;-76
2022/07/23 09:58:03;;;;;;;12.18;4.15;;;;;;;30.81;23.63;94207.38;5126409;28;20023;-76
2022/07/23 10:00:30;;;;;;;11.95;4.53;;;;;;;30.89;23.69;94213.47;5126285;28;20019;-76
2022/07/23 10:02:57;;;;;;;12.45;3.65;;;;;;;30.97;22.89;94214.81;5126338;28;20031;-77
2022/07/23 10:05:24;;;;;;;10.98;4.45;;;;;;;31.04;22.80;94216.59;5126144;28;20076;-77
2022/07/23 10:07:51;;;;;;;10.43;4.10;;;;;;;31.11;22.08;94208.16;5126161;28;20090;-76
2022/07/23 10:10:17;;;;;;;10.77;4.47;;;;;;;31.22;22.36;94210.56;5126367;28;20095;-76
2022/07/23 10:15:12;;;;;;;10.50;4.40;;;;;;;31.45;21.22;94198.50;5126294;28;20026;-77
2022/07/23 10:17:37;;;;;;;10.13;5.20;;;;;;;31.55;22.92;94197.44;5124831;28;20071;-77
2022/07/23 10:20:05;;;;;;;12.90;4.35;;;;;;;31.59;22.02;94203.59;5124846;28;20019;-77
2022/07/23 10:22:37;;;;;;;13.88;4.50;;;;;;;31.63;23.37;94196.00;5124273;28;20023;-77
2022/07/23 10:25:19;;;;;;;14.68;4.28;;;;;;;31.64;21.54;94194.00;5124783;28;20026;-77
2022/07/23 10:28:03;;;;;;;;;;;;;;;31.65;21.65;94193.56;5125037;28;20027;-77
2022/07/23 10:30:42;;;;;;;13.93;4.85;;;;;;;31.64;23.35;94194.00;5124605;28;19904;-76
2022/07/23 10:33:25;;;;;;;16.27;4.60;;;;;;;31.80;22.17;94185.63;5124672;28;20023;-77
2022/07/23 10:36:15;;;;;;;9.75;4.18;;;;;;;31.99;19.70;94192.09;5124660;28;20256;-77
2022/07/23 10:39:06;;;;;;;11.80;4.15;;;;;;;32.07;21.37;94187.91;5124556;28;20378;-77
2022/07/23 10:41:36;;;;;;;14.00;4.13;;;;;;;32.04;20.91;94183.31;5124106;28;20072;-77
2022/07/23 10:44:14;;;;;;;12.00;4.40;;;;;;;32.07;20.21;94176.88;5124334;28;20050;-77
2022/07/23 10:49:36;;;;;;;16.02;4.95;;;;;;;32.28;19.99;94169.13;5124240;28;20015;-77
2022/07/23 10:52:14;;;;;;;15.60;6.13;;;;;;;32.34;18.90;94164.56;5124158;28;20274;-77
2022/07/23 10:54:46;;;;;;;14.35;4.35;;;;;;;32.42;17.53;94165.09;5124594;28;20111;-77
2022/07/23 10:57:13;;;;;;;19.55;4.88;;;;;;;32.46;18.73;94161.00;5124215;28;20032;-77
2022/07/23 11:00:01;;;;;;;17.38;4.38;;;;;;;32.60;18.10;94153.47;5123989;28;20051;-77
2022/07/23 11:02:29;;;;;;;14.10;4.53;;;;;;;32.70;17.92;94153.09;5124115;28;20028;-77
2022/07/23 11:05:06;;;;;;;8.80;4.55;;;;;;;32.66;17.94;94152.44;5124156;28;20039;-77
2022/07/23 11:07:33;;;;;;;19.15;5.20;;;;;;;32.81;19.29;94152.69;5122883;28;20048;-77
2022/07/23 11:09:58;;;;;;;13.90;4.90;;;;;;;32.97;19.67;94146.97;5123949;28;20023;-77
2022/07/23 11:12:24;;;;;;;15.07;4.95;;;;;;;33.17;18.28;94141.13;5124034;28;20007;-77
2022/07/23 11:15:10;;;;;;;14.00;5.05;;;;;;;33.25;18.43;94133.34;5124232;28;20104;-77
2022/07/23 11:18:01;;;;;;;9.65;4.57;;;;;;;33.29;19.68;94133.97;5078046;27;1314209;-77
2022/07/23 11:20:28;;;;;;;17.48;4.75;;;;;;;33.29;19.25;94136.72;5124912;28;20023;-77
2022/07/23 11:22:58;;;;;;;15.63;4.63;;;;;;;33.40;18.60;94130.78;5124970;28;20094;-77
2022/07/23 11:25:29;;;;;;;15.63;3.97;;;;;;;33.47;16.62;94127.75;5124621;28;20030;-77
2022/07/23 11:28:08;;;;;;;13.82;4.40;;;;;;;33.46;20.18;94125.44;5124764;28;20027;-77
2022/07/23 11:30:39;;;;;;;12.85;4.43;;;;;;;33.52;17.51;94118.09;5124681;28;20031;-77